createdAt,value
2018-02-13T00:00:28.255Z,87.65
2018-02-13T00:01:30.052Z,87.93
2018-02-13T00:02:29.093Z,88.03
2018-02-13T00:03:28.199Z,88.12
2018-02-13T00:04:28.175Z,88.60
2018-02-13T00:05:28.153Z,88.60
2018-02-13T00:06:28.131Z,88.12
2018-02-13T00:07:28.125Z,88.03
2018-02-13T00:08:28.109Z,87.93
2018-02-13T00:09:28.069Z,88.03
2018-02-13T00:10:28.049Z,87.93
2018-02-13T00:11:28.038Z,88.12
2018-02-13T00:12:28.026Z,88.12
2018-02-13T00:13:29.056Z,88.22
2018-02-13T00:14:27.964Z,88.50
2018-02-13T00:15:27.944Z,88.98
2018-02-13T00:16:27.925Z,88.69
2018-02-13T00:17:28.220Z,89.07
2018-02-13T00:18:27.902Z,88.50
2018-02-13T00:19:27.862Z,88.98
2018-02-13T00:20:27.840Z,88.98
2018-02-13T00:21:27.820Z,88.60
2018-02-13T00:22:27.798Z,88.50
2018-02-13T00:23:27.794Z,88.69
2018-02-13T00:24:27.761Z,89.17
2018-02-13T00:25:27.737Z,89.17
2018-02-13T00:26:27.715Z,89.07
2018-02-13T00:27:27.696Z,88.69
2018-02-13T00:28:27.690Z,89.26
2018-02-13T00:29:27.654Z,89.07
2018-02-13T00:30:27.633Z,89.26
2018-02-13T00:31:27.610Z,89.17
2018-02-13T00:32:27.590Z,88.60
2018-02-13T00:33:27.570Z,88.69
2018-02-13T00:34:27.568Z,88.50
2018-02-13T00:35:27.546Z,88.79
2018-02-13T00:36:27.504Z,89.26
2018-02-13T00:37:27.490Z,88.41
2018-02-13T00:38:27.463Z,88.88
2018-02-13T00:39:27.449Z,89.54
2018-02-13T00:40:27.426Z,89.54
2018-02-13T00:41:27.414Z,89.36
2018-02-13T00:42:27.383Z,89.54
2018-02-13T00:43:28.089Z,89.26
2018-02-13T00:44:27.361Z,89.54
2018-02-13T00:45:27.349Z,89.69
2018-02-13T00:46:27.316Z,89.87
2018-02-13T00:47:27.338Z,89.97
2018-02-13T00:48:27.270Z,89.78
2018-02-13T00:49:27.236Z,89.78
2018-02-13T00:50:27.227Z,89.83
2018-02-13T00:51:27.211Z,89.73
2018-02-13T00:52:27.176Z,89.83
2018-02-13T00:53:27.155Z,89.64
2018-02-13T00:54:27.137Z,89.64
2018-02-13T00:55:27.131Z,89.87
2018-02-13T00:56:27.090Z,89.69
2018-02-13T00:57:27.088Z,90.06
2018-02-13T00:58:27.050Z,90.16
2018-02-13T00:59:27.029Z,90.16
2018-02-13T01:00:27.017Z,90.25
2018-02-13T01:01:27.090Z,90.35
2018-02-13T01:02:26.963Z,90.25
2018-02-13T01:03:26.948Z,90.44
2018-02-13T01:04:26.925Z,91.10
2018-02-13T01:05:26.907Z,90.25
2018-02-13T01:06:26.899Z,91.01
2018-02-13T01:07:26.865Z,91.01
2018-02-13T01:08:26.841Z,91.29
2018-02-13T01:09:26.822Z,91.39
2018-02-13T01:10:26.831Z,90.73
2018-02-13T01:11:26.779Z,91.39
2018-02-13T01:12:26.773Z,91.29
2018-02-13T01:13:26.741Z,91.39
2018-02-13T01:14:26.717Z,91.39
2018-02-13T01:15:26.700Z,91.67
2018-02-13T01:16:26.691Z,91.58
2018-02-13T01:17:26.655Z,91.58
2018-02-13T01:18:26.677Z,91.01
2018-02-13T01:19:26.611Z,90.73
2018-02-13T01:20:26.608Z,90.63
2018-02-13T01:21:26.575Z,90.63
2018-02-13T01:22:26.562Z,90.54
2018-02-13T01:23:26.530Z,90.63
2018-02-13T01:24:26.509Z,90.54
2018-02-13T01:25:26.486Z,90.63
2018-02-13T01:26:26.469Z,90.73
2018-02-13T01:27:26.472Z,90.25
2018-02-13T01:28:26.435Z,90.63
2018-02-13T01:29:26.412Z,90.73
2018-02-13T01:30:26.386Z,90.63
2018-02-13T01:31:26.373Z,90.63
2018-02-13T01:32:26.336Z,90.63
2018-02-13T01:33:26.340Z,90.82
2018-02-13T01:34:26.299Z,91.01
2018-02-13T01:35:26.282Z,90.82
2018-02-13T01:36:26.259Z,91.10
2018-02-13T01:37:26.233Z,91.58
2018-02-13T01:38:26.212Z,91.29
2018-02-13T01:39:26.213Z,91.29
2018-02-13T01:40:26.174Z,91.01
2018-02-13T01:41:26.157Z,91.10
2018-02-13T01:42:26.132Z,91.29
2018-02-13T01:43:26.116Z,90.91
2018-02-13T01:44:26.105Z,91.77
2018-02-13T01:45:26.068Z,91.29
2018-02-13T01:46:26.051Z,91.48
2018-02-13T01:47:26.033Z,91.86
2018-02-13T01:48:26.006Z,91.58
2018-02-13T01:49:25.999Z,91.67
2018-02-13T01:50:25.981Z,91.39
2018-02-13T01:51:25.947Z,92.14
2018-02-13T01:52:25.921Z,91.77
2018-02-13T01:53:25.903Z,92.14
2018-02-13T01:54:25.879Z,91.39
2018-02-13T01:55:25.859Z,91.58
2018-02-13T01:56:25.857Z,91.77
2018-02-13T01:57:25.819Z,91.29
2018-02-13T01:58:25.797Z,91.20
2018-02-13T01:59:25.782Z,91.01
2018-02-13T02:00:25.754Z,90.25
2018-02-13T02:01:25.750Z,90.91
2018-02-13T02:02:25.714Z,90.63
2018-02-13T02:03:25.691Z,90.25
2018-02-13T02:04:25.673Z,90.35
2018-02-13T02:05:25.665Z,90.25
2018-02-13T02:06:25.628Z,90.16
2018-02-13T02:07:25.607Z,90.25
2018-02-13T02:08:25.584Z,90.16
2018-02-13T02:09:25.566Z,90.25
2018-02-13T02:10:25.546Z,90.16
2018-02-13T02:11:25.543Z,90.25
2018-02-13T02:12:25.501Z,89.78
2018-02-13T02:13:25.487Z,90.25
2018-02-13T02:14:25.460Z,90.73
2018-02-13T02:15:25.438Z,90.63
2018-02-13T02:16:25.431Z,90.54
2018-02-13T02:17:25.413Z,90.63
2018-02-13T02:18:25.374Z,90.82
2018-02-13T02:19:25.352Z,90.54
2018-02-13T02:20:25.334Z,90.63
2018-02-13T02:21:25.307Z,90.35
2018-02-13T02:22:25.291Z,90.06
2018-02-13T02:23:25.287Z,90.25
2018-02-13T02:24:25.248Z,90.35
2018-02-13T02:25:25.226Z,90.06
2018-02-13T02:26:27.061Z,90.54
2018-02-13T02:27:25.186Z,89.78
2018-02-13T02:28:25.179Z,89.78
2018-02-13T02:29:25.154Z,90.35
2018-02-13T02:30:25.120Z,89.78
2018-02-13T02:31:25.108Z,89.78
2018-02-13T02:32:25.078Z,89.97
2018-02-13T02:33:25.069Z,89.87
2018-02-13T02:34:25.054Z,89.97
2018-02-13T02:35:25.014Z,89.78
2018-02-13T02:36:24.992Z,89.97
2018-02-13T02:37:24.981Z,90.16
2018-02-13T02:38:24.967Z,89.97
2018-02-13T02:39:24.932Z,89.97
2018-02-13T02:40:24.911Z,90.06
2018-02-13T02:41:24.884Z,90.16
2018-02-13T02:42:24.870Z,90.44
2018-02-13T02:43:24.862Z,90.73
2018-02-13T02:44:24.838Z,89.97
2018-02-13T02:45:24.823Z,90.06
2018-02-13T02:46:24.780Z,90.25
2018-02-13T02:47:24.771Z,90.25
2018-02-13T02:48:24.738Z,90.44
2018-02-13T02:49:24.718Z,90.16
2018-02-13T02:50:24.695Z,90.35
2018-02-13T02:51:24.689Z,89.97
2018-02-13T02:52:24.654Z,89.87
2018-02-13T02:53:24.628Z,89.87
2018-02-13T02:54:24.611Z,89.78
2018-02-13T02:55:24.590Z,89.97
2018-02-13T02:56:24.589Z,90.06
2018-02-13T02:57:24.546Z,89.87
2018-02-13T02:58:24.528Z,89.97
2018-02-13T02:59:24.517Z,90.06
2018-02-13T03:00:24.490Z,90.16
2018-02-13T03:01:24.459Z,90.25
2018-02-13T03:02:24.903Z,90.06
2018-02-13T03:03:24.427Z,90.91
2018-02-13T03:04:24.403Z,90.63
2018-02-13T03:05:24.378Z,90.82
2018-02-13T03:06:24.364Z,90.16
2018-02-13T03:07:24.338Z,90.16
2018-02-13T03:08:24.330Z,90.06
2018-02-13T03:09:25.126Z,90.54
2018-02-13T03:10:24.273Z,90.25
2018-02-13T03:11:24.268Z,90.44
2018-02-13T03:12:24.229Z,90.16
2018-02-13T03:13:24.207Z,90.25
2018-02-13T03:14:24.190Z,90.16
2018-02-13T03:15:24.165Z,90.82
2018-02-13T03:16:24.154Z,90.63
2018-02-13T03:17:24.122Z,90.63
2018-02-13T03:18:24.116Z,90.73
2018-02-13T03:19:24.077Z,90.91
2018-02-13T03:20:24.066Z,90.91
2018-02-13T03:21:24.036Z,90.54
2018-02-13T03:22:24.016Z,90.35
2018-02-13T03:23:24.015Z,90.35
2018-02-13T03:24:23.972Z,90.54
2018-02-13T03:25:23.951Z,90.35
2018-02-13T03:26:23.935Z,90.44
2018-02-13T03:27:23.913Z,90.06
2018-02-13T03:28:23.913Z,89.69
2018-02-13T03:29:23.869Z,90.35
2018-02-13T03:30:23.847Z,89.97
2018-02-13T03:31:23.833Z,90.06
2018-02-13T03:32:23.798Z,90.25
2018-02-13T03:33:24.055Z,90.73
2018-02-13T03:34:23.759Z,90.73
2018-02-13T03:35:23.734Z,90.91
2018-02-13T03:36:23.717Z,90.63
2018-02-13T03:37:23.688Z,90.73
2018-02-13T03:38:23.682Z,90.54
2018-02-13T03:39:23.667Z,90.73
2018-02-13T03:40:23.643Z,90.63
2018-02-13T03:41:23.608Z,90.82
2018-02-13T03:42:23.586Z,90.54
2018-02-13T03:43:23.568Z,91.01
2018-02-13T03:44:23.544Z,91.01
2018-02-13T03:45:23.540Z,90.54
2018-02-13T03:46:23.506Z,90.54
2018-02-13T03:47:23.485Z,90.25
2018-02-13T03:48:23.462Z,90.44
2018-02-13T03:49:23.438Z,90.54
2018-02-13T03:50:23.433Z,90.73
2018-02-13T03:51:23.390Z,90.63
2018-02-13T03:52:23.377Z,91.20
2018-02-13T03:53:23.349Z,90.91
2018-02-13T03:54:23.335Z,91.20
2018-02-13T03:55:23.311Z,90.91
2018-02-13T03:56:23.306Z,91.58
2018-02-13T03:57:23.265Z,91.39
2018-02-13T03:58:23.247Z,91.39
2018-02-13T03:59:23.228Z,91.48
2018-02-13T04:00:23.208Z,91.39
2018-02-13T04:01:23.202Z,91.48
2018-02-13T04:02:23.162Z,91.10
2018-02-13T04:03:23.142Z,91.48
2018-02-13T04:04:23.119Z,91.10
2018-02-13T04:05:23.102Z,91.39
2018-02-13T04:06:23.087Z,91.10
2018-02-13T04:07:23.072Z,90.91
2018-02-13T04:08:23.031Z,91.20
2018-02-13T04:09:23.014Z,91.20
2018-02-13T04:10:22.992Z,91.10
2018-02-13T04:11:22.978Z,91.39
2018-02-13T04:12:22.967Z,90.73
2018-02-13T04:13:22.923Z,90.82
2018-02-13T04:14:22.915Z,90.91
2018-02-13T04:15:22.885Z,90.73
2018-02-13T04:16:22.885Z,90.63
2018-02-13T04:17:22.857Z,90.63
2018-02-13T04:18:22.821Z,90.54
2018-02-13T04:19:22.798Z,90.73
2018-02-13T04:20:22.779Z,90.63
2018-02-13T04:21:22.775Z,90.91
2018-02-13T04:22:22.734Z,90.44
2018-02-13T04:23:22.716Z,90.63
2018-02-13T04:24:22.690Z,90.73
2018-02-13T04:25:22.673Z,89.97
2018-02-13T04:26:22.648Z,90.25
2018-02-13T04:27:22.644Z,90.16
2018-02-13T04:28:22.616Z,90.35
2018-02-13T04:29:22.585Z,90.16
2018-02-13T04:30:22.564Z,90.44
2018-02-13T04:31:22.574Z,90.25
2018-02-13T04:32:23.134Z,89.97
2018-02-13T04:33:22.498Z,89.87
2018-02-13T04:34:22.485Z,89.97
2018-02-13T04:35:22.460Z,89.78
2018-02-13T04:36:22.441Z,89.78
2018-02-13T04:37:22.430Z,89.50
2018-02-13T04:38:22.396Z,89.69
2018-02-13T04:39:22.375Z,89.78
2018-02-13T04:40:22.353Z,89.31
2018-02-13T04:41:22.330Z,88.74
2018-02-13T04:42:22.326Z,88.74
2018-02-13T04:43:22.293Z,88.74
2018-02-13T04:44:22.268Z,89.03
2018-02-13T04:45:22.244Z,89.31
2018-02-13T04:46:22.223Z,89.31
2018-02-13T04:47:22.215Z,89.40
2018-02-13T04:48:22.204Z,89.59
2018-02-13T04:49:22.159Z,89.03
2018-02-13T04:50:22.135Z,89.31
2018-02-13T04:51:22.110Z,89.40
2018-02-13T04:52:22.088Z,88.93
2018-02-13T04:53:22.102Z,89.22
2018-02-13T04:54:22.064Z,89.31
2018-02-13T04:55:22.027Z,89.40
2018-02-13T04:56:22.016Z,88.93
2018-02-13T04:57:21.981Z,89.40
2018-02-13T04:58:21.980Z,89.31
2018-02-13T04:59:21.959Z,89.31
2018-02-13T05:00:21.922Z,89.31
2018-02-13T05:01:21.900Z,89.50
2018-02-13T05:02:21.879Z,88.93
2018-02-13T05:03:21.853Z,89.40
2018-02-13T05:04:21.858Z,88.93
2018-02-13T05:05:21.815Z,88.93
2018-02-13T05:06:21.791Z,88.84
2018-02-13T05:07:21.770Z,88.84
2018-02-13T05:08:21.752Z,89.31
2018-02-13T05:09:21.744Z,88.74
2018-02-13T05:10:21.705Z,89.12
2018-02-13T05:11:21.688Z,89.12
2018-02-13T05:12:21.668Z,89.40
2018-02-13T05:13:21.641Z,89.03
2018-02-13T05:14:21.617Z,89.40
2018-02-13T05:15:21.618Z,89.12
2018-02-13T05:16:21.580Z,89.40
2018-02-13T05:17:21.553Z,89.40
2018-02-13T05:18:21.536Z,89.40
2018-02-13T05:19:21.521Z,89.12
2018-02-13T05:20:21.508Z,88.93
2018-02-13T05:21:21.469Z,89.12
2018-02-13T05:22:21.448Z,88.84
2018-02-13T05:23:21.437Z,88.74
2018-02-13T05:24:21.406Z,88.84
2018-02-13T05:25:21.398Z,88.79
2018-02-13T05:26:21.377Z,88.93
2018-02-13T05:27:21.345Z,89.03
2018-02-13T05:28:21.319Z,88.84
2018-02-13T05:29:21.303Z,88.84
2018-02-13T05:30:21.277Z,89.50
2018-02-13T05:31:21.278Z,89.40
2018-02-13T05:32:21.233Z,89.12
2018-02-13T05:33:21.208Z,89.03
2018-02-13T05:34:21.190Z,89.12
2018-02-13T05:35:21.170Z,89.31
2018-02-13T05:36:21.147Z,89.12
2018-02-13T05:37:21.142Z,89.59
2018-02-13T05:38:21.105Z,89.22
2018-02-13T05:39:21.081Z,89.59
2018-02-13T05:40:21.056Z,89.12
2018-02-13T05:41:21.098Z,89.40
2018-02-13T05:42:21.102Z,89.50
2018-02-13T05:43:21.075Z,89.40
2018-02-13T05:44:21.609Z,89.12
2018-02-13T05:45:20.959Z,89.31
2018-02-13T05:46:20.937Z,89.31
2018-02-13T05:47:20.930Z,88.93
2018-02-13T05:48:20.892Z,89.03
2018-02-13T05:49:20.922Z,89.40
2018-02-13T05:50:20.886Z,89.12
2018-02-13T05:51:20.851Z,89.31
2018-02-13T05:52:20.810Z,88.84
2018-02-13T05:53:20.833Z,89.12
2018-02-13T05:54:20.780Z,88.55
2018-02-13T05:55:20.788Z,88.46
2018-02-13T05:56:20.728Z,88.46
2018-02-13T05:57:20.718Z,88.46
2018-02-13T05:58:20.697Z,88.55
2018-02-13T05:59:20.660Z,89.12
2018-02-13T06:00:20.655Z,88.84
2018-02-13T06:01:21.563Z,88.93
2018-02-13T06:02:20.591Z,89.31
2018-02-13T06:03:20.594Z,89.22
2018-02-13T06:04:20.557Z,89.03
2018-02-13T06:05:20.542Z,88.84
2018-02-13T06:06:21.084Z,89.03
2018-02-13T06:07:20.511Z,88.93
2018-02-13T06:08:20.467Z,88.93
2018-02-13T06:09:20.440Z,89.03
2018-02-13T06:10:20.464Z,88.55
2018-02-13T06:11:20.406Z,88.46
2018-02-13T06:12:20.434Z,89.12
2018-02-13T06:13:20.369Z,89.12
2018-02-13T06:14:20.336Z,88.84
2018-02-13T06:15:20.320Z,88.93
2018-02-13T06:16:20.329Z,89.22
2018-02-13T06:17:20.272Z,88.55
2018-02-13T06:18:20.251Z,88.65
2018-02-13T06:19:20.254Z,88.46
2018-02-13T06:20:20.232Z,88.65
2018-02-13T06:21:20.200Z,88.36
2018-02-13T06:22:20.177Z,88.46
2018-02-13T06:23:20.160Z,88.74
2018-02-13T06:24:20.119Z,88.74
2018-02-13T06:25:20.103Z,89.12
2018-02-13T06:26:20.171Z,88.46
2018-02-13T06:27:20.096Z,88.55
2018-02-13T06:28:20.065Z,88.65
2018-02-13T06:29:20.019Z,88.36
2018-02-13T06:30:20.036Z,88.65
2018-02-13T06:31:20.000Z,88.65
2018-02-13T06:32:19.955Z,88.46
2018-02-13T06:33:19.945Z,88.46
2018-02-13T06:34:19.924Z,88.36
2018-02-13T06:35:19.933Z,88.65
2018-02-13T06:36:19.902Z,88.65
2018-02-13T06:37:19.873Z,88.74
2018-02-13T06:38:19.837Z,88.55
2018-02-13T06:39:19.852Z,88.65
2018-02-13T06:40:19.792Z,88.55
2018-02-13T06:41:19.797Z,88.46
2018-02-13T06:42:19.764Z,88.46
2018-02-13T06:43:19.749Z,88.55
2018-02-13T06:44:19.690Z,88.93
2018-02-13T06:45:19.730Z,88.74
2018-02-13T06:46:19.725Z,88.93
2018-02-13T06:47:20.214Z,88.93
2018-02-13T06:48:19.644Z,88.65
2018-02-13T06:49:19.598Z,88.46
2018-02-13T06:50:19.558Z,88.65
2018-02-13T06:51:19.541Z,88.84
2018-02-13T06:52:19.528Z,88.93
2018-02-13T06:53:19.512Z,88.46
2018-02-13T06:54:19.484Z,88.46
2018-02-13T06:55:19.452Z,89.03
2018-02-13T06:56:19.430Z,88.74
2018-02-13T06:57:19.433Z,88.46
2018-02-13T06:58:19.386Z,88.65
2018-02-13T06:59:19.393Z,88.55
2018-02-13T07:00:19.358Z,88.46
2018-02-13T07:01:19.322Z,89.12
2018-02-13T07:02:19.303Z,89.12
2018-02-13T07:03:19.281Z,89.31
2018-02-13T07:04:19.272Z,89.40
2018-02-13T07:05:19.240Z,89.03
2018-02-13T07:06:19.215Z,89.12
2018-02-13T07:07:19.194Z,88.55
2018-02-13T07:08:20.066Z,88.55
2018-02-13T07:09:19.168Z,89.12
2018-02-13T07:10:19.136Z,88.65
2018-02-13T07:11:19.113Z,88.55
2018-02-13T07:12:19.087Z,88.74
2018-02-13T07:13:19.062Z,88.84
2018-02-13T07:14:19.062Z,88.74
2018-02-13T07:15:19.031Z,88.65
2018-02-13T07:16:18.997Z,88.65
2018-02-13T07:17:18.992Z,88.98
2018-02-13T07:18:18.965Z,88.74
2018-02-13T07:19:18.937Z,88.65
2018-02-13T07:20:18.969Z,88.74
2018-02-13T07:21:18.898Z,88.36
2018-02-13T07:22:18.881Z,88.36
2018-02-13T07:23:18.850Z,88.55
2018-02-13T07:24:18.834Z,88.46
2018-02-13T07:25:18.801Z,88.46
2018-02-13T07:26:18.784Z,89.03
2018-02-13T07:27:18.779Z,88.98
2018-02-13T07:28:18.739Z,88.98
2018-02-13T07:29:18.722Z,88.60
2018-02-13T07:30:18.697Z,88.69
2018-02-13T07:31:18.677Z,88.88
2018-02-13T07:32:18.653Z,88.88
2018-02-13T07:33:18.647Z,89.45
2018-02-13T07:34:18.611Z,89.07
2018-02-13T07:35:18.592Z,89.45
2018-02-13T07:36:18.566Z,89.07
2018-02-13T07:37:18.548Z,89.64
2018-02-13T07:38:18.539Z,89.92
2018-02-13T07:39:18.524Z,89.45
2018-02-13T07:40:18.483Z,89.64
2018-02-13T07:41:18.462Z,89.36
2018-02-13T07:42:18.441Z,89.17
2018-02-13T07:43:18.430Z,88.60
2018-02-13T07:44:18.418Z,88.50
2018-02-13T07:45:18.387Z,88.50
2018-02-13T07:46:18.352Z,88.50
2018-02-13T07:47:18.333Z,88.03
2018-02-13T07:48:18.321Z,88.31
2018-02-13T07:49:18.288Z,87.74
2018-02-13T07:50:18.285Z,87.93
2018-02-13T07:51:18.252Z,88.41
2018-02-13T07:52:18.225Z,88.41
2018-02-13T07:53:18.203Z,88.22
2018-02-13T07:54:18.183Z,87.93
2018-02-13T07:55:18.176Z,88.31
2018-02-13T07:56:18.155Z,88.03
2018-02-13T07:57:18.115Z,88.12
2018-02-13T07:58:18.098Z,87.93
2018-02-13T07:59:18.075Z,87.93
2018-02-13T08:00:39.062Z,88.12
2018-02-13T08:01:18.037Z,88.12
2018-02-13T08:02:18.103Z,88.31
2018-02-13T08:03:17.992Z,88.03
2018-02-13T08:04:17.986Z,88.03
2018-02-13T08:05:17.947Z,87.65
2018-02-13T08:06:17.923Z,87.84
2018-02-13T08:07:17.906Z,87.70
2018-02-13T08:08:17.893Z,87.79
2018-02-13T08:09:17.881Z,87.79
2018-02-13T08:10:17.843Z,87.32
2018-02-13T08:11:17.819Z,87.04
2018-02-13T08:12:17.811Z,87.04
2018-02-13T08:13:17.779Z,87.13
2018-02-13T08:14:17.759Z,87.79
2018-02-13T08:15:17.737Z,87.32
2018-02-13T08:16:17.733Z,87.51
2018-02-13T08:17:18.568Z,87.32
2018-02-13T08:18:17.672Z,87.04
2018-02-13T08:19:17.664Z,86.85
2018-02-13T08:20:17.628Z,86.94
2018-02-13T08:21:17.606Z,86.47
2018-02-13T08:22:17.599Z,86.66
2018-02-13T08:23:17.568Z,86.47
2018-02-13T08:24:17.544Z,86.85
2018-02-13T08:25:17.537Z,86.85
2018-02-13T08:26:17.503Z,86.37
2018-02-13T08:27:17.485Z,86.66
2018-02-13T08:28:17.464Z,86.85
2018-02-13T08:29:17.439Z,85.90
2018-02-13T08:30:17.435Z,85.90
2018-02-13T08:31:17.398Z,85.52
2018-02-13T08:32:17.377Z,85.90
2018-02-13T08:33:17.370Z,86.09
2018-02-13T08:34:18.068Z,85.90
2018-02-13T08:35:17.315Z,85.99
2018-02-13T08:36:19.070Z,85.71
2018-02-13T08:37:17.270Z,85.71
2018-02-13T08:38:17.255Z,85.61
2018-02-13T08:39:17.231Z,85.52
2018-02-13T08:40:17.217Z,85.52
2018-02-13T08:41:17.187Z,85.61
2018-02-13T08:42:17.184Z,85.71
2018-02-13T08:43:17.146Z,85.24
2018-02-13T08:44:17.161Z,85.28
2018-02-13T08:45:17.105Z,84.71
2018-02-13T08:46:17.083Z,85.00
2018-02-13T08:47:17.083Z,84.90
2018-02-13T08:48:17.041Z,85.00
2018-02-13T08:49:17.022Z,84.95
2018-02-13T08:50:17.001Z,85.00
2018-02-13T08:51:16.977Z,85.24
2018-02-13T08:52:16.956Z,85.00
2018-02-13T08:53:16.953Z,84.86
2018-02-13T08:54:16.918Z,85.00
2018-02-13T08:55:16.898Z,84.90
2018-02-13T08:56:16.874Z,85.00
2018-02-13T08:57:16.853Z,84.90
2018-02-13T08:58:16.859Z,85.00
2018-02-13T08:59:17.572Z,84.90
2018-02-13T09:00:16.795Z,84.81
2018-02-13T09:01:16.813Z,85.19
2018-02-13T09:02:16.779Z,84.52
2018-02-13T09:03:16.728Z,84.23
2018-02-13T09:04:16.798Z,84.61
2018-02-13T09:05:16.686Z,84.52
2018-02-13T09:06:16.688Z,84.33
2018-02-13T09:07:16.648Z,83.86
2018-02-13T09:08:16.666Z,84.05
2018-02-13T09:09:16.625Z,83.48
2018-02-13T09:10:16.587Z,84.05
2018-02-13T09:11:16.588Z,84.23
2018-02-13T09:12:16.564Z,83.67
2018-02-13T09:13:16.532Z,83.95
2018-02-13T09:14:16.525Z,83.86
2018-02-13T09:15:16.491Z,83.67
2018-02-13T09:16:17.109Z,83.10
2018-02-13T09:17:16.511Z,82.72
2018-02-13T09:18:16.422Z,83.29
2018-02-13T09:19:16.414Z,82.72
2018-02-13T09:20:16.441Z,82.72
2018-02-13T09:21:16.358Z,83.01
2018-02-13T09:22:16.337Z,83.39
2018-02-13T09:23:16.333Z,82.63
2018-02-13T09:24:16.354Z,83.33
2018-02-13T09:25:16.281Z,82.95
2018-02-13T09:26:16.264Z,82.76
2018-02-13T09:27:16.238Z,82.67
2018-02-13T09:28:16.231Z,82.86
2018-02-13T09:29:16.229Z,82.48
2018-02-13T09:30:16.194Z,82.29
2018-02-13T09:31:16.178Z,82.20
2018-02-13T09:32:16.141Z,82.29
2018-02-13T09:33:16.116Z,82.10
2018-02-13T09:34:16.120Z,82.48
2018-02-13T09:35:16.074Z,81.92
2018-02-13T09:36:16.071Z,82.39
2018-02-13T09:37:16.039Z,82.01
2018-02-13T09:38:16.026Z,81.53
2018-02-13T09:39:15.997Z,81.53
2018-02-13T09:40:16.032Z,81.53
2018-02-13T09:41:15.992Z,81.44
2018-02-13T09:42:16.619Z,81.53
2018-02-13T09:43:15.914Z,81.53
2018-02-13T09:44:15.893Z,81.63
2018-02-13T09:45:15.873Z,81.53
2018-02-13T09:46:15.855Z,81.53
2018-02-13T09:47:15.865Z,81.06
2018-02-13T09:48:15.846Z,81.15
2018-02-13T09:49:15.807Z,80.82
2018-02-13T09:50:15.788Z,80.68
2018-02-13T09:51:15.763Z,80.49
2018-02-13T09:52:15.756Z,80.58
2018-02-13T09:53:15.719Z,80.21
2018-02-13T09:54:15.711Z,80.82
2018-02-13T09:55:15.685Z,80.82
2018-02-13T09:56:15.661Z,80.34
2018-02-13T09:57:15.663Z,80.15
2018-02-13T09:58:15.609Z,80.15
2018-02-13T09:59:15.590Z,79.96
2018-02-13T10:00:15.583Z,80.06
2018-02-13T10:01:15.554Z,80.25
2018-02-13T10:02:15.557Z,79.68
2018-02-13T10:03:15.537Z,79.49
2018-02-13T10:04:15.492Z,79.49
2018-02-13T10:05:15.471Z,79.39
2018-02-13T10:06:15.459Z,79.68
2018-02-13T10:07:15.443Z,80.15
2018-02-13T10:08:15.491Z,79.49
2018-02-13T10:09:15.425Z,79.49
2018-02-13T10:10:15.384Z,79.49
2018-02-13T10:11:15.422Z,79.49
2018-02-13T10:12:15.342Z,79.21
2018-02-13T10:13:15.348Z,78.92
2018-02-13T10:14:15.327Z,79.21
2018-02-13T10:15:15.281Z,78.64
2018-02-13T10:16:15.310Z,79.02
2018-02-13T10:17:15.250Z,79.02
2018-02-13T10:18:15.220Z,78.83
2018-02-13T10:19:15.198Z,79.06
2018-02-13T10:20:15.220Z,79.34
2018-02-13T10:21:15.149Z,78.87
2018-02-13T10:22:15.148Z,78.67
2018-02-13T10:23:15.183Z,78.11
2018-02-13T10:24:15.105Z,77.64
2018-02-13T10:25:15.084Z,78.02
2018-02-13T10:26:15.578Z,78.20
2018-02-13T10:27:15.040Z,77.83
2018-02-13T10:28:15.034Z,77.73
2018-02-13T10:29:15.012Z,77.92
2018-02-13T10:30:14.998Z,77.45
2018-02-13T10:31:14.991Z,77.45
2018-02-13T10:32:14.971Z,77.73
2018-02-13T10:33:14.936Z,77.25
2018-02-13T10:34:14.926Z,77.35
2018-02-13T10:35:14.884Z,76.92
2018-02-13T10:36:14.889Z,76.73
2018-02-13T10:37:14.865Z,75.87
2018-02-13T10:38:35.871Z,75.96
2018-02-13T10:39:14.814Z,75.68
2018-02-13T10:40:14.809Z,75.87
2018-02-13T10:41:14.800Z,75.96
2018-02-13T10:42:14.783Z,75.49
2018-02-13T10:43:14.759Z,75.31
2018-02-13T10:44:14.764Z,74.58
2018-02-13T10:45:14.700Z,74.16
2018-02-13T10:46:14.677Z,74.49
2018-02-13T10:47:14.684Z,74.11
2018-02-13T10:48:14.682Z,73.54
2018-02-13T10:49:14.616Z,73.25
2018-02-13T10:50:14.624Z,72.88
2018-02-13T10:51:14.581Z,72.02
2018-02-13T10:52:14.561Z,71.30
2018-02-13T10:53:14.551Z,71.30
2018-02-13T10:54:14.520Z,68.83
2018-02-13T10:55:14.498Z,67.82
2018-02-13T10:56:14.494Z,66.33
2018-02-13T10:57:14.462Z,64.37
2018-02-13T10:58:14.461Z,62.30
2018-02-13T10:59:14.426Z,59.77
2018-02-13T11:00:14.407Z,58.06
2018-02-13T11:01:14.390Z,57.36
2018-02-13T11:02:15.083Z,57.48
2018-02-13T11:03:14.378Z,57.58
2018-02-13T11:04:14.371Z,56.27
2018-02-13T11:05:14.390Z,54.78
2018-02-13T11:06:14.350Z,53.09
2018-02-13T11:07:14.433Z,52.23
2018-02-13T11:08:14.375Z,52.04
2018-02-13T11:09:14.347Z,51.85
2018-02-13T11:10:14.466Z,52.11
2018-02-13T11:11:14.253Z,51.95
2018-02-13T11:12:14.256Z,51.68
2018-02-13T11:13:14.247Z,50.83
2018-02-13T11:14:14.259Z,50.04
2018-02-13T11:15:15.093Z,50.80
2018-02-13T11:16:14.269Z,51.28
2018-02-13T11:17:15.169Z,51.37
2018-02-13T11:18:14.175Z,51.47
2018-02-13T11:19:14.202Z,51.56
2018-02-13T11:20:15.130Z,51.37
2018-02-13T11:21:14.154Z,52.30
2018-02-13T11:22:14.092Z,53.06
2018-02-13T11:23:14.104Z,51.45
2018-02-13T11:24:14.096Z,51.09
2018-02-13T11:25:14.083Z,51.45
2018-02-13T11:26:14.102Z,51.35
2018-02-13T11:27:14.090Z,51.25
2018-02-13T11:28:14.092Z,50.99
2018-02-13T11:29:14.043Z,50.45
2018-02-13T11:30:13.984Z,50.16
2018-02-13T11:31:13.978Z,48.83
2018-02-13T11:32:13.948Z,48.75
2018-02-13T11:33:13.936Z,47.87
2018-02-13T11:34:13.930Z,48.35
2018-02-13T11:35:13.906Z,48.90
2018-02-13T11:36:13.902Z,49.87
2018-02-13T11:37:13.884Z,48.99
2018-02-13T11:38:13.874Z,49.82
2018-02-13T11:39:13.894Z,50.56
2018-02-13T11:40:13.854Z,51.14
2018-02-13T11:41:13.834Z,51.45
2018-02-13T11:42:13.832Z,50.40
2018-02-13T11:43:13.842Z,50.37
2018-02-13T11:44:13.799Z,50.30
2018-02-13T11:45:13.796Z,49.66
2018-02-13T11:46:13.779Z,48.35
2018-02-13T11:47:13.767Z,48.25
2018-02-13T11:48:13.774Z,47.71
2018-02-13T11:49:13.751Z,47.02
2018-02-13T11:50:13.737Z,46.73
2018-02-13T11:51:13.727Z,47.11
2018-02-13T11:52:13.765Z,46.37
2018-02-13T11:53:13.718Z,45.92
2018-02-13T11:54:13.723Z,45.32
2018-02-13T11:55:13.763Z,44.74
2018-02-13T11:56:13.674Z,44.08
2018-02-13T11:57:13.675Z,44.94
2018-02-13T11:58:13.840Z,44.94
2018-02-13T11:59:13.832Z,44.65
2018-02-13T12:00:13.662Z,45.22
2018-02-13T12:01:13.622Z,45.99
2018-02-13T12:02:13.609Z,45.63
2018-02-13T12:03:13.614Z,45.97
2018-02-13T12:04:13.581Z,45.89
2018-02-13T12:05:13.599Z,45.20
2018-02-13T12:06:13.566Z,45.99
2018-02-13T12:07:13.554Z,46.18
2018-02-13T12:08:13.540Z,46.70
2018-02-13T12:09:13.537Z,47.02
2018-02-13T12:10:13.545Z,46.75
2018-02-13T12:11:13.524Z,45.92
2018-02-13T12:12:14.132Z,44.77
2018-02-13T12:13:13.497Z,44.29
2018-02-13T12:14:13.480Z,42.93
2018-02-13T12:15:13.494Z,43.24
2018-02-13T12:16:13.538Z,43.24
2018-02-13T12:17:15.203Z,42.96
2018-02-13T12:18:13.513Z,44.37
2018-02-13T12:19:13.442Z,44.01
2018-02-13T12:20:13.416Z,43.33
2018-02-13T12:21:14.167Z,42.50
2018-02-13T12:22:13.480Z,41.74
2018-02-13T12:23:13.402Z,41.83
2018-02-13T12:24:13.378Z,42.11
2018-02-13T12:25:13.377Z,41.74
2018-02-13T12:26:13.370Z,41.93
2018-02-13T12:27:13.359Z,41.85
2018-02-13T12:28:13.364Z,40.42
2018-02-13T12:29:13.333Z,40.30
2018-02-13T12:30:13.331Z,41.05
2018-02-13T12:31:15.109Z,41.55
2018-02-13T12:32:13.351Z,41.64
2018-02-13T12:33:13.319Z,42.08
2018-02-13T12:34:13.318Z,41.96
2018-02-13T12:35:13.288Z,42.91
2018-02-13T12:36:13.294Z,44.13
2018-02-13T12:37:13.256Z,43.96
2018-02-13T12:38:13.256Z,43.96
2018-02-13T12:39:13.239Z,44.25
2018-02-13T12:40:13.253Z,44.27
2018-02-13T12:41:15.106Z,43.03
2018-02-13T12:42:13.227Z,43.15
2018-02-13T12:43:13.199Z,41.98
2018-02-13T12:44:13.183Z,42.46
2018-02-13T12:45:13.189Z,43.03
2018-02-13T12:46:15.109Z,42.84
2018-02-13T12:47:13.152Z,42.46
2018-02-13T12:48:13.150Z,43.32
2018-02-13T12:49:13.149Z,42.93
2018-02-13T12:50:13.144Z,43.03
2018-02-13T12:51:13.121Z,42.93
2018-02-13T12:52:13.106Z,43.20